This is the latest recevied weather packets stored in our database for station/object DB0FN-10. If no packets are shown the sender has not sent any weather packets the latest 10 day(s).
| Time | Temp. | Humidity | Pressure | Rain* | Wind** | Luminosity | Snow |
|---|---|---|---|---|---|---|---|
| 1787887939 | 29.44° C | 37% | 1015.9 hPa | - | - | - | - |
| 1787887039 | 29.44° C | 36% | 1016 hPa | - | - | - | - |
| 1787886139 | 31.11° C | 31% | 1016 hPa | - | - | - | - |
| 1787885239 | 31.11° C | 31% | 1016.5 hPa | - | - | - | - |
| 1787884339 | 31.11° C | 31% | 1016.6 hPa | - | - | - | - |
| 1787883439 | 31.67° C | 30% | 1016.4 hPa | - | - | - | - |
| 1787882539 | 31.11° C | 30% | 1016.3 hPa | - | - | - | - |
| 1787881639 | 31.67° C | 29% | 1016.5 hPa | - | - | - | - |
| 1787880739 | 31.67° C | 30% | 1016.4 hPa | - | - | - | - |
| 1787879839 | 31.67° C | 29% | 1016.3 hPa | - | - | - | - |
| 1787878938 | 31.67° C | 30% | 1016.3 hPa | - | - | - | - |
| 1787878038 | 31.67° C | 29% | 1016.7 hPa | - | - | - | - |
| 1787877138 | 31.11° C | 30% | 1016.4 hPa | - | - | - | - |
| 1787876238 | 31.11° C | 30% | 1016.5 hPa | - | - | - | - |
| 1787875338 | 31.67° C | 29% | 1016.6 hPa | - | - | - | - |
| 1787874438 | 31.67° C | 30% | 1016.5 hPa | - | - | - | - |
| 1787873538 | 31.67° C | 31% | 1016.7 hPa | - | - | - | - |
| 1787872638 | 31.11° C | 33% | 1017 hPa | - | - | - | - |
| 1787871738 | 31.11° C | 33% | 1017.1 hPa | - | - | - | - |
| 1787870838 | 30.56° C | 34% | 1017.2 hPa | - | - | - | - |
| 1787869938 | 30.56° C | 34% | 1017 hPa | - | - | - | - |
| 1787869038 | 30.56° C | 36% | 1017 hPa | - | - | - | - |
| 1787868138 | 30.56° C | 36% | 1017.2 hPa | - | - | - | - |
| 1787867237 | 30° C | 39% | 1017.2 hPa | - | - | - | - |
| 1787866337 | 30° C | 39% | 1017.3 hPa | - | - | - | - |
* Rain since midnight (hover to see other rain measurements)
** Current wind speed in m/s (hover to see current wind gust speed)